sensor_id;sensor_type;location;lat;lon;timestamp;temperature;humidity
7472;DHT22;3777;48.722;8.110;2022-11-15T00:01:16;12.70;99.90
7472;DHT22;3777;48.722;8.110;2022-11-15T00:03:44;12.60;99.90
7472;DHT22;3777;48.722;8.110;2022-11-15T00:06:11;12.60;99.90
7472;DHT22;3777;48.722;8.110;2022-11-15T00:08:38;12.50;99.90
7472;DHT22;3777;48.722;8.110;2022-11-15T00:11:05;12.50;99.90
7472;DHT22;3777;48.722;8.110;2022-11-15T00:13:32;12.40;99.90
7472;DHT22;3777;48.722;8.110;2022-11-15T00:16:01;12.40;99.90
7472;DHT22;3777;48.722;8.110;2022-11-15T00:18:28;12.50;99.90
7472;DHT22;3777;48.722;8.110;2022-11-15T00:20:55;12.50;99.90
7472;DHT22;3777;48.722;8.110;2022-11-15T00:23:22;12.50;99.90
7472;DHT22;3777;48.722;8.110;2022-11-15T00:25:55;12.50;99.90
7472;DHT22;3777;48.722;8.110;2022-11-15T00:28:22;12.50;99.90
7472;DHT22;3777;48.722;8.110;2022-11-15T00:30:49;12.50;99.90
7472;DHT22;3777;48.722;8.110;2022-11-15T00:33:17;12.40;99.90
7472;DHT22;3777;48.722;8.110;2022-11-15T00:35:44;12.40;99.90
7472;DHT22;3777;48.722;8.110;2022-11-15T00:38:11;12.40;99.90
7472;DHT22;3777;48.722;8.110;2022-11-15T00:40:38;12.50;99.90
7472;DHT22;3777;48.722;8.110;2022-11-15T00:43:04;12.50;99.90
7472;DHT22;3777;48.722;8.110;2022-11-15T00:45:31;12.50;99.90
7472;DHT22;3777;48.722;8.110;2022-11-15T00:47:58;12.50;99.90
7472;DHT22;3777;48.722;8.110;2022-11-15T00:50:26;12.50;99.90
7472;DHT22;3777;48.722;8.110;2022-11-15T00:52:53;12.50;99.90
7472;DHT22;3777;48.722;8.110;2022-11-15T00:55:20;12.60;99.90
7472;DHT22;3777;48.722;8.110;2022-11-15T00:57:47;12.60;99.90
7472;DHT22;3777;48.722;8.110;2022-11-15T01:00:14;12.60;99.90
7472;DHT22;3777;48.722;8.110;2022-11-15T01:02:41;12.60;99.90
7472;DHT22;3777;48.722;8.110;2022-11-15T01:05:08;12.70;99.90
7472;DHT22;3777;48.722;8.110;2022-11-15T01:07:36;12.70;99.90
7472;DHT22;3777;48.722;8.110;2022-11-15T01:10:04;12.70;99.90
7472;DHT22;3777;48.722;8.110;2022-11-15T01:12:31;12.70;99.90
7472;DHT22;3777;48.722;8.110;2022-11-15T01:14:58;12.80;99.90
7472;DHT22;3777;48.722;8.110;2022-11-15T01:17:25;12.80;99.90
7472;DHT22;3777;48.722;8.110;2022-11-15T01:19:52;12.80;99.90
7472;DHT22;3777;48.722;8.110;2022-11-15T01:22:19;12.90;99.90
7472;DHT22;3777;48.722;8.110;2022-11-15T01:24:47;12.90;99.90
7472;DHT22;3777;48.722;8.110;2022-11-15T01:27:15;12.90;99.90
7472;DHT22;3777;48.722;8.110;2022-11-15T01:29:42;12.90;99.90
7472;DHT22;3777;48.722;8.110;2022-11-15T01:32:09;12.90;99.90
7472;DHT22;3777;48.722;8.110;2022-11-15T01:34:35;13.00;99.90
7472;DHT22;3777;48.722;8.110;2022-11-15T01:37:02;12.90;99.90
7472;DHT22;3777;48.722;8.110;2022-11-15T01:39:29;13.00;99.90
7472;DHT22;3777;48.722;8.110;2022-11-15T01:41:57;12.90;99.90
7472;DHT22;3777;48.722;8.110;2022-11-15T01:44:42;12.90;99.90
7472;DHT22;3777;48.722;8.110;2022-11-15T01:47:12;12.90;99.90
7472;DHT22;3777;48.722;8.110;2022-11-15T01:49:45;12.90;99.90
7472;DHT22;3777;48.722;8.110;2022-11-15T01:52:18;12.90;99.90
7472;DHT22;3777;48.722;8.110;2022-11-15T01:54:46;12.90;99.90
7472;DHT22;3777;48.722;8.110;2022-11-15T01:57:14;12.90;99.90
7472;DHT22;3777;48.722;8.110;2022-11-15T01:59:43;12.90;99.90
7472;DHT22;3777;48.722;8.110;2022-11-15T02:02:11;12.90;99.90
7472;DHT22;3777;48.722;8.110;2022-11-15T02:04:41;12.90;99.90
7472;DHT22;3777;48.722;8.110;2022-11-15T02:07:10;13.00;99.90
7472;DHT22;3777;48.722;8.110;2022-11-15T02:09:38;13.00;99.90
7472;DHT22;3777;48.722;8.110;2022-11-15T02:12:06;13.10;99.90
7472;DHT22;3777;48.722;8.110;2022-11-15T02:14:36;13.00;99.90
7472;DHT22;3777;48.722;8.110;2022-11-15T02:17:15;13.00;99.90
7472;DHT22;3777;48.722;8.110;2022-11-15T02:23:11;13.00;99.90
7472;DHT22;3777;48.722;8.110;2022-11-15T02:25:49;13.00;99.90
7472;DHT22;3777;48.722;8.110;2022-11-15T02:28:44;12.90;99.90
7472;DHT22;3777;48.722;8.110;2022-11-15T02:31:19;12.90;99.90
7472;DHT22;3777;48.722;8.110;2022-11-15T02:33:55;12.90;99.90
7472;DHT22;3777;48.722;8.110;2022-11-15T02:36:35;12.90;99.90
7472;DHT22;3777;48.722;8.110;2022-11-15T02:39:05;12.90;99.90
7472;DHT22;3777;48.722;8.110;2022-11-15T02:41:40;12.90;99.90
7472;DHT22;3777;48.722;8.110;2022-11-15T02:44:14;12.90;99.90
7472;DHT22;3777;48.722;8.110;2022-11-15T02:46:44;12.90;99.90
7472;DHT22;3777;48.722;8.110;2022-11-15T02:49:32;12.90;99.90
7472;DHT22;3777;48.722;8.110;2022-11-15T02:52:00;12.90;99.90
7472;DHT22;3777;48.722;8.110;2022-11-15T02:54:29;12.90;99.90
7472;DHT22;3777;48.722;8.110;2022-11-15T02:57:00;12.90;99.90
7472;DHT22;3777;48.722;8.110;2022-11-15T02:59:47;13.00;99.90
7472;DHT22;3777;48.722;8.110;2022-11-15T03:02:29;13.00;99.90
7472;DHT22;3777;48.722;8.110;2022-11-15T03:05:00;13.00;99.90
7472;DHT22;3777;48.722;8.110;2022-11-15T03:07:32;13.10;99.90
7472;DHT22;3777;48.722;8.110;2022-11-15T03:10:06;13.10;99.90
7472;DHT22;3777;48.722;8.110;2022-11-15T03:12:40;13.10;99.90
7472;DHT22;3777;48.722;8.110;2022-11-15T03:15:14;13.10;99.90
7472;DHT22;3777;48.722;8.110;2022-11-15T03:17:49;13.10;99.90
7472;DHT22;3777;48.722;8.110;2022-11-15T03:20:19;13.10;99.90
7472;DHT22;3777;48.722;8.110;2022-11-15T03:22:47;13.20;99.90
7472;DHT22;3777;48.722;8.110;2022-11-15T03:25:18;13.20;99.90
7472;DHT22;3777;48.722;8.110;2022-11-15T03:27:50;13.20;99.90
7472;DHT22;3777;48.722;8.110;2022-11-15T03:30:18;13.20;99.90
7472;DHT22;3777;48.722;8.110;2022-11-15T03:32:50;13.20;99.90
7472;DHT22;3777;48.722;8.110;2022-11-15T03:35:20;13.10;99.90
7472;DHT22;3777;48.722;8.110;2022-11-15T03:37:52;13.20;99.90
7472;DHT22;3777;48.722;8.110;2022-11-15T03:40:23;13.20;99.90
7472;DHT22;3777;48.722;8.110;2022-11-15T03:42:56;13.20;99.90
7472;DHT22;3777;48.722;8.110;2022-11-15T03:45:28;13.20;99.90
7472;DHT22;3777;48.722;8.110;2022-11-15T03:48:02;13.20;99.90
7472;DHT22;3777;48.722;8.110;2022-11-15T03:50:32;13.20;99.90
7472;DHT22;3777;48.722;8.110;2022-11-15T03:52:59;13.20;99.90
7472;DHT22;3777;48.722;8.110;2022-11-15T03:55:25;13.20;99.90
7472;DHT22;3777;48.722;8.110;2022-11-15T03:57:54;13.30;99.90
7472;DHT22;3777;48.722;8.110;2022-11-15T04:00:23;13.30;99.90
7472;DHT22;3777;48.722;8.110;2022-11-15T04:02:50;13.30;99.90
7472;DHT22;3777;48.722;8.110;2022-11-15T04:05:18;13.30;99.90
7472;DHT22;3777;48.722;8.110;2022-11-15T04:07:44;13.30;99.90
7472;DHT22;3777;48.722;8.110;2022-11-15T04:10:13;13.30;99.90
7472;DHT22;3777;48.722;8.110;2022-11-15T04:12:43;13.30;99.90
7472;DHT22;3777;48.722;8.110;2022-11-15T04:15:14;13.30;99.90
7472;DHT22;3777;48.722;8.110;2022-11-15T04:17:42;13.40;99.90
7472;DHT22;3777;48.722;8.110;2022-11-15T04:20:12;13.40;99.90
7472;DHT22;3777;48.722;8.110;2022-11-15T04:23:00;13.40;99.90
7472;DHT22;3777;48.722;8.110;2022-11-15T04:25:45;13.40;99.90
7472;DHT22;3777;48.722;8.110;2022-11-15T04:28:12;13.40;99.90
7472;DHT22;3777;48.722;8.110;2022-11-15T04:30:39;13.40;99.90
7472;DHT22;3777;48.722;8.110;2022-11-15T04:33:06;13.50;99.90
7472;DHT22;3777;48.722;8.110;2022-11-15T04:35:32;13.50;99.90
7472;DHT22;3777;48.722;8.110;2022-11-15T04:38:02;13.50;99.90
7472;DHT22;3777;48.722;8.110;2022-11-15T04:40:28;13.50;99.90
7472;DHT22;3777;48.722;8.110;2022-11-15T04:42:55;13.50;99.90
7472;DHT22;3777;48.722;8.110;2022-11-15T04:45:22;13.50;99.90
7472;DHT22;3777;48.722;8.110;2022-11-15T04:47:48;13.50;99.90
7472;DHT22;3777;48.722;8.110;2022-11-15T04:50:15;13.60;99.90
7472;DHT22;3777;48.722;8.110;2022-11-15T04:52:50;13.60;99.90
7472;DHT22;3777;48.722;8.110;2022-11-15T04:55:18;13.60;99.90
7472;DHT22;3777;48.722;8.110;2022-11-15T04:57:45;13.60;99.90
7472;DHT22;3777;48.722;8.110;2022-11-15T05:00:14;13.60;99.90
7472;DHT22;3777;48.722;8.110;2022-11-15T05:02:41;13.60;99.90
7472;DHT22;3777;48.722;8.110;2022-11-15T05:05:26;13.60;99.90
7472;DHT22;3777;48.722;8.110;2022-11-15T05:07:52;13.60;99.90
7472;DHT22;3777;48.722;8.110;2022-11-15T05:10:21;13.50;99.90
7472;DHT22;3777;48.722;8.110;2022-11-15T05:12:47;13.40;99.90
7472;DHT22;3777;48.722;8.110;2022-11-15T05:15:14;13.30;99.90
7472;DHT22;3777;48.722;8.110;2022-11-15T05:17:41;13.20;99.90
7472;DHT22;3777;48.722;8.110;2022-11-15T05:20:09;13.10;99.90
7472;DHT22;3777;48.722;8.110;2022-11-15T05:22:36;13.10;99.90
7472;DHT22;3777;48.722;8.110;2022-11-15T05:25:03;13.00;99.90
7472;DHT22;3777;48.722;8.110;2022-11-15T05:27:32;12.90;99.90
7472;DHT22;3777;48.722;8.110;2022-11-15T05:29:59;12.90;99.90
7472;DHT22;3777;48.722;8.110;2022-11-15T05:32:26;12.90;99.90
7472;DHT22;3777;48.722;8.110;2022-11-15T05:34:54;12.90;99.90
7472;DHT22;3777;48.722;8.110;2022-11-15T05:37:21;12.90;99.90
7472;DHT22;3777;48.722;8.110;2022-11-15T05:39:48;12.90;99.90
7472;DHT22;3777;48.722;8.110;2022-11-15T05:42:15;12.90;99.90
7472;DHT22;3777;48.722;8.110;2022-11-15T05:44:46;12.90;99.90
7472;DHT22;3777;48.722;8.110;2022-11-15T05:47:17;12.90;99.90
7472;DHT22;3777;48.722;8.110;2022-11-15T05:49:46;12.90;99.90
7472;DHT22;3777;48.722;8.110;2022-11-15T05:52:17;12.90;99.90
7472;DHT22;3777;48.722;8.110;2022-11-15T05:54:46;12.80;99.90
7472;DHT22;3777;48.722;8.110;2022-11-15T05:57:13;12.90;99.90
7472;DHT22;3777;48.722;8.110;2022-11-15T05:59:40;13.00;99.90
7472;DHT22;3777;48.722;8.110;2022-11-15T06:02:10;13.00;99.90
7472;DHT22;3777;48.722;8.110;2022-11-15T06:04:37;13.00;99.90
7472;DHT22;3777;48.722;8.110;2022-11-15T06:07:04;13.00;99.90
7472;DHT22;3777;48.722;8.110;2022-11-15T06:09:31;13.10;99.90
7472;DHT22;3777;48.722;8.110;2022-11-15T06:11:57;13.10;99.90
7472;DHT22;3777;48.722;8.110;2022-11-15T06:14:24;13.10;99.90
7472;DHT22;3777;48.722;8.110;2022-11-15T06:16:51;13.10;99.90
7472;DHT22;3777;48.722;8.110;2022-11-15T06:19:19;13.10;99.90
7472;DHT22;3777;48.722;8.110;2022-11-15T06:21:46;13.20;99.90
7472;DHT22;3777;48.722;8.110;2022-11-15T06:24:13;13.20;99.90
7472;DHT22;3777;48.722;8.110;2022-11-15T06:26:39;13.20;99.90
7472;DHT22;3777;48.722;8.110;2022-11-15T06:29:06;13.20;99.90
7472;DHT22;3777;48.722;8.110;2022-11-15T06:31:33;13.30;99.90
7472;DHT22;3777;48.722;8.110;2022-11-15T06:34:00;13.30;99.90
7472;DHT22;3777;48.722;8.110;2022-11-15T06:36:28;13.30;99.90
7472;DHT22;3777;48.722;8.110;2022-11-15T06:38:56;13.30;99.90
7472;DHT22;3777;48.722;8.110;2022-11-15T06:41:22;13.30;99.90
7472;DHT22;3777;48.722;8.110;2022-11-15T06:43:49;13.30;99.90
7472;DHT22;3777;48.722;8.110;2022-11-15T06:46:16;13.30;99.90
7472;DHT22;3777;48.722;8.110;2022-11-15T06:48:43;13.30;99.90
7472;DHT22;3777;48.722;8.110;2022-11-15T06:51:09;13.30;99.90
7472;DHT22;3777;48.722;8.110;2022-11-15T06:53:37;13.30;99.90
7472;DHT22;3777;48.722;8.110;2022-11-15T06:56:05;13.30;99.90
7472;DHT22;3777;48.722;8.110;2022-11-15T06:58:33;13.30;99.90
7472;DHT22;3777;48.722;8.110;2022-11-15T07:01:00;13.30;99.90
7472;DHT22;3777;48.722;8.110;2022-11-15T07:03:27;13.30;99.90
7472;DHT22;3777;48.722;8.110;2022-11-15T07:05:55;13.40;99.90
7472;DHT22;3777;48.722;8.110;2022-11-15T07:08:23;13.40;99.90
7472;DHT22;3777;48.722;8.110;2022-11-15T07:10:51;13.40;99.90
7472;DHT22;3777;48.722;8.110;2022-11-15T07:13:18;13.50;99.90
7472;DHT22;3777;48.722;8.110;2022-11-15T07:15:45;13.50;99.90
7472;DHT22;3777;48.722;8.110;2022-11-15T07:18:11;13.50;99.90
7472;DHT22;3777;48.722;8.110;2022-11-15T07:20:38;13.50;99.90
7472;DHT22;3777;48.722;8.110;2022-11-15T07:23:05;13.50;99.90
7472;DHT22;3777;48.722;8.110;2022-11-15T07:25:32;13.50;99.90
7472;DHT22;3777;48.722;8.110;2022-11-15T07:28:01;13.60;99.90
7472;DHT22;3777;48.722;8.110;2022-11-15T07:30:28;13.60;99.90
7472;DHT22;3777;48.722;8.110;2022-11-15T07:32:56;13.60;99.90
7472;DHT22;3777;48.722;8.110;2022-11-15T07:35:24;13.60;99.90
7472;DHT22;3777;48.722;8.110;2022-11-15T07:37:55;13.60;99.90
7472;DHT22;3777;48.722;8.110;2022-11-15T07:40:22;13.60;99.90
7472;DHT22;3777;48.722;8.110;2022-11-15T07:42:49;13.70;99.90
7472;DHT22;3777;48.722;8.110;2022-11-15T07:45:20;13.70;99.90
7472;DHT22;3777;48.722;8.110;2022-11-15T07:47:48;13.80;99.90
7472;DHT22;3777;48.722;8.110;2022-11-15T07:50:15;13.90;99.90
7472;DHT22;3777;48.722;8.110;2022-11-15T07:52:42;13.90;99.90
7472;DHT22;3777;48.722;8.110;2022-11-15T07:55:09;14.00;99.90
7472;DHT22;3777;48.722;8.110;2022-11-15T07:57:36;14.00;99.90
7472;DHT22;3777;48.722;8.110;2022-11-15T08:00:04;14.10;99.90
7472;DHT22;3777;48.722;8.110;2022-11-15T08:02:32;14.20;99.90
7472;DHT22;3777;48.722;8.110;2022-11-15T08:04:59;14.20;99.90
7472;DHT22;3777;48.722;8.110;2022-11-15T08:07:28;14.20;99.90
7472;DHT22;3777;48.722;8.110;2022-11-15T08:09:55;14.30;99.90
7472;DHT22;3777;48.722;8.110;2022-11-15T08:12:22;14.40;99.90
7472;DHT22;3777;48.722;8.110;2022-11-15T08:14:49;14.40;99.90
7472;DHT22;3777;48.722;8.110;2022-11-15T08:17:16;14.50;99.90
7472;DHT22;3777;48.722;8.110;2022-11-15T08:19:44;14.60;99.90
7472;DHT22;3777;48.722;8.110;2022-11-15T08:22:11;14.60;99.90
7472;DHT22;3777;48.722;8.110;2022-11-15T08:24:38;14.60;99.90
7472;DHT22;3777;48.722;8.110;2022-11-15T08:27:05;14.70;99.90
7472;DHT22;3777;48.722;8.110;2022-11-15T08:29:40;14.70;99.90
7472;DHT22;3777;48.722;8.110;2022-11-15T08:32:07;14.80;99.90
7472;DHT22;3777;48.722;8.110;2022-11-15T08:34:34;14.80;99.90
7472;DHT22;3777;48.722;8.110;2022-11-15T08:37:02;14.80;99.90
7472;DHT22;3777;48.722;8.110;2022-11-15T08:39:29;14.80;99.90
7472;DHT22;3777;48.722;8.110;2022-11-15T08:41:55;14.80;99.90
7472;DHT22;3777;48.722;8.110;2022-11-15T08:44:22;14.80;99.90
7472;DHT22;3777;48.722;8.110;2022-11-15T08:46:50;14.90;99.90
7472;DHT22;3777;48.722;8.110;2022-11-15T08:49:17;14.80;99.90
7472;DHT22;3777;48.722;8.110;2022-11-15T08:51:45;14.90;99.90
7472;DHT22;3777;48.722;8.110;2022-11-15T08:54:13;14.90;99.90
7472;DHT22;3777;48.722;8.110;2022-11-15T08:56:40;15.00;99.90
7472;DHT22;3777;48.722;8.110;2022-11-15T08:59:07;15.10;99.90
7472;DHT22;3777;48.722;8.110;2022-11-15T09:01:34;15.20;99.90
7472;DHT22;3777;48.722;8.110;2022-11-15T09:04:00;15.30;99.90
7472;DHT22;3777;48.722;8.110;2022-11-15T09:06:27;15.40;99.90
7472;DHT22;3777;48.722;8.110;2022-11-15T09:08:54;15.50;99.90
7472;DHT22;3777;48.722;8.110;2022-11-15T09:11:22;15.60;99.90
7472;DHT22;3777;48.722;8.110;2022-11-15T09:13:49;15.70;99.90
7472;DHT22;3777;48.722;8.110;2022-11-15T09:16:17;15.70;99.90
7472;DHT22;3777;48.722;8.110;2022-11-15T09:18:44;15.80;99.90
7472;DHT22;3777;48.722;8.110;2022-11-15T09:21:11;15.80;99.90
7472;DHT22;3777;48.722;8.110;2022-11-15T09:23:38;15.90;99.90
7472;DHT22;3777;48.722;8.110;2022-11-15T09:26:05;15.90;99.90
7472;DHT22;3777;48.722;8.110;2022-11-15T09:28:34;15.90;99.90
7472;DHT22;3777;48.722;8.110;2022-11-15T09:31:03;16.00;99.90
7472;DHT22;3777;48.722;8.110;2022-11-15T09:33:30;16.00;99.90
7472;DHT22;3777;48.722;8.110;2022-11-15T09:36:00;16.00;99.90
7472;DHT22;3777;48.722;8.110;2022-11-15T09:38:27;16.00;99.90
7472;DHT22;3777;48.722;8.110;2022-11-15T09:41:08;16.10;99.90
7472;DHT22;3777;48.722;8.110;2022-11-15T09:43:47;16.10;99.90
7472;DHT22;3777;48.722;8.110;2022-11-15T09:46:22;16.10;99.90
7472;DHT22;3777;48.722;8.110;2022-11-15T09:48:54;16.10;99.90
7472;DHT22;3777;48.722;8.110;2022-11-15T09:51:28;16.10;99.90
7472;DHT22;3777;48.722;8.110;2022-11-15T09:54:01;16.10;99.90
7472;DHT22;3777;48.722;8.110;2022-11-15T09:56:31;16.10;99.90
7472;DHT22;3777;48.722;8.110;2022-11-15T09:59:18;16.10;99.90
7472;DHT22;3777;48.722;8.110;2022-11-15T10:01:55;16.10;99.90
7472;DHT22;3777;48.722;8.110;2022-11-15T10:04:23;16.10;99.90
7472;DHT22;3777;48.722;8.110;2022-11-15T10:07:00;16.10;99.90
7472;DHT22;3777;48.722;8.110;2022-11-15T10:09:33;16.10;99.90
7472;DHT22;3777;48.722;8.110;2022-11-15T10:12:02;16.10;99.90
7472;DHT22;3777;48.722;8.110;2022-11-15T10:14:31;16.10;99.90
7472;DHT22;3777;48.722;8.110;2022-11-15T10:17:13;16.10;99.90
7472;DHT22;3777;48.722;8.110;2022-11-15T10:19:53;16.10;99.90
7472;DHT22;3777;48.722;8.110;2022-11-15T10:22:28;16.20;99.90
7472;DHT22;3777;48.722;8.110;2022-11-15T10:25:13;16.20;99.90
7472;DHT22;3777;48.722;8.110;2022-11-15T10:27:42;16.20;99.90
7472;DHT22;3777;48.722;8.110;2022-11-15T10:30:13;16.30;99.90
7472;DHT22;3777;48.722;8.110;2022-11-15T10:32:42;16.30;99.90
7472;DHT22;3777;48.722;8.110;2022-11-15T10:35:17;16.30;99.90
7472;DHT22;3777;48.722;8.110;2022-11-15T10:37:45;16.40;99.90
7472;DHT22;3777;48.722;8.110;2022-11-15T10:40:17;16.50;99.90
7472;DHT22;3777;48.722;8.110;2022-11-15T10:42:44;16.50;99.90
7472;DHT22;3777;48.722;8.110;2022-11-15T10:45:25;16.60;99.90
7472;DHT22;3777;48.722;8.110;2022-11-15T10:47:53;16.70;99.90
7472;DHT22;3777;48.722;8.110;2022-11-15T10:50:31;16.80;99.90
7472;DHT22;3777;48.722;8.110;2022-11-15T10:52:58;16.90;99.90
7472;DHT22;3777;48.722;8.110;2022-11-15T10:55:30;16.80;99.90
7472;DHT22;3777;48.722;8.110;2022-11-15T10:58:02;16.90;99.90
7472;DHT22;3777;48.722;8.110;2022-11-15T11:00:33;16.90;99.90
7472;DHT22;3777;48.722;8.110;2022-11-15T11:03:02;17.00;99.90
7472;DHT22;3777;48.722;8.110;2022-11-15T11:05:33;17.20;99.90
7472;DHT22;3777;48.722;8.110;2022-11-15T11:08:03;17.30;99.90
7472;DHT22;3777;48.722;8.110;2022-11-15T11:10:30;17.40;99.90
7472;DHT22;3777;48.722;8.110;2022-11-15T11:13:12;17.50;99.90
7472;DHT22;3777;48.722;8.110;2022-11-15T11:15:42;17.50;99.90
7472;DHT22;3777;48.722;8.110;2022-11-15T11:18:17;17.60;99.90
7472;DHT22;3777;48.722;8.110;2022-11-15T11:20:46;17.70;99.90
7472;DHT22;3777;48.722;8.110;2022-11-15T11:23:28;17.70;99.90
7472;DHT22;3777;48.722;8.110;2022-11-15T11:26:11;17.80;99.90
7472;DHT22;3777;48.722;8.110;2022-11-15T11:28:46;17.90;99.90
7472;DHT22;3777;48.722;8.110;2022-11-15T11:31:27;18.00;99.90
7472;DHT22;3777;48.722;8.110;2022-11-15T11:34:05;18.10;99.90
7472;DHT22;3777;48.722;8.110;2022-11-15T11:36:39;18.20;99.90
7472;DHT22;3777;48.722;8.110;2022-11-15T11:39:18;18.20;99.90
7472;DHT22;3777;48.722;8.110;2022-11-15T11:41:55;18.20;99.90
7472;DHT22;3777;48.722;8.110;2022-11-15T11:44:44;18.30;99.90
7472;DHT22;3777;48.722;8.110;2022-11-15T11:47:20;18.30;99.90
7472;DHT22;3777;48.722;8.110;2022-11-15T11:49:51;18.30;99.90
7472;DHT22;3777;48.722;8.110;2022-11-15T11:52:22;18.20;99.90
7472;DHT22;3777;48.722;8.110;2022-11-15T11:54:59;18.20;99.90
7472;DHT22;3777;48.722;8.110;2022-11-15T11:57:33;18.10;99.90
7472;DHT22;3777;48.722;8.110;2022-11-15T12:00:04;18.00;99.90
7472;DHT22;3777;48.722;8.110;2022-11-15T12:02:40;18.00;99.90
7472;DHT22;3777;48.722;8.110;2022-11-15T12:05:11;17.90;99.90
7472;DHT22;3777;48.722;8.110;2022-11-15T12:07:40;17.80;99.90
7472;DHT22;3777;48.722;8.110;2022-11-15T12:10:17;17.90;99.90
7472;DHT22;3777;48.722;8.110;2022-11-15T12:12:53;17.80;99.90
7472;DHT22;3777;48.722;8.110;2022-11-15T12:15:24;17.90;99.90
7472;DHT22;3777;48.722;8.110;2022-11-15T12:17:55;17.90;99.90
7472;DHT22;3777;48.722;8.110;2022-11-15T12:20:23;17.80;99.90
7472;DHT22;3777;48.722;8.110;2022-11-15T12:22:55;17.80;99.90
7472;DHT22;3777;48.722;8.110;2022-11-15T12:25:27;17.90;99.90
7472;DHT22;3777;48.722;8.110;2022-11-15T12:27:58;17.90;99.90
7472;DHT22;3777;48.722;8.110;2022-11-15T12:30:38;17.80;99.90
7472;DHT22;3777;48.722;8.110;2022-11-15T12:33:29;17.80;99.90
7472;DHT22;3777;48.722;8.110;2022-11-15T12:35:58;17.80;99.90
7472;DHT22;3777;48.722;8.110;2022-11-15T12:38:52;17.80;99.90
7472;DHT22;3777;48.722;8.110;2022-11-15T12:41:20;17.80;99.90
7472;DHT22;3777;48.722;8.110;2022-11-15T12:43:48;17.70;99.90
7472;DHT22;3777;48.722;8.110;2022-11-15T12:46:21;17.70;99.90
7472;DHT22;3777;48.722;8.110;2022-11-15T12:48:52;17.60;99.90
7472;DHT22;3777;48.722;8.110;2022-11-15T12:51:22;17.60;99.90
7472;DHT22;3777;48.722;8.110;2022-11-15T12:53:49;17.50;99.90
7472;DHT22;3777;48.722;8.110;2022-11-15T12:56:24;17.40;99.90
7472;DHT22;3777;48.722;8.110;2022-11-15T12:58:56;17.30;99.90
7472;DHT22;3777;48.722;8.110;2022-11-15T13:04:33;17.30;99.90
7472;DHT22;3777;48.722;8.110;2022-11-15T13:07:01;17.40;99.90
7472;DHT22;3777;48.722;8.110;2022-11-15T13:09:52;17.40;99.90
7472;DHT22;3777;48.722;8.110;2022-11-15T13:12:48;17.50;99.90
7472;DHT22;3777;48.722;8.110;2022-11-15T13:15:31;17.60;99.90
7472;DHT22;3777;48.722;8.110;2022-11-15T13:17:58;17.60;99.90
7472;DHT22;3777;48.722;8.110;2022-11-15T13:20:29;17.70;99.90
7472;DHT22;3777;48.722;8.110;2022-11-15T13:23:02;17.70;99.90
7472;DHT22;3777;48.722;8.110;2022-11-15T13:26:04;17.80;99.90
7472;DHT22;3777;48.722;8.110;2022-11-15T13:28:36;17.70;99.90
7472;DHT22;3777;48.722;8.110;2022-11-15T13:31:17;17.50;99.90
7472;DHT22;3777;48.722;8.110;2022-11-15T13:33:46;17.30;99.90
7472;DHT22;3777;48.722;8.110;2022-11-15T13:36:17;17.20;99.90
7472;DHT22;3777;48.722;8.110;2022-11-15T13:38:54;17.10;99.90
7472;DHT22;3777;48.722;8.110;2022-11-15T13:41:23;17.00;99.90
7472;DHT22;3777;48.722;8.110;2022-11-15T13:43:51;17.00;99.90
7472;DHT22;3777;48.722;8.110;2022-11-15T13:46:20;16.90;99.90
7472;DHT22;3777;48.722;8.110;2022-11-15T13:48:52;16.80;99.90
7472;DHT22;3777;48.722;8.110;2022-11-15T13:51:29;16.80;99.90
7472;DHT22;3777;48.722;8.110;2022-11-15T13:53:58;16.80;99.90
7472;DHT22;3777;48.722;8.110;2022-11-15T13:56:27;16.70;99.90
7472;DHT22;3777;48.722;8.110;2022-11-15T13:58:56;16.70;99.90
7472;DHT22;3777;48.722;8.110;2022-11-15T14:01:23;16.60;99.90
7472;DHT22;3777;48.722;8.110;2022-11-15T14:03:56;16.60;99.90
7472;DHT22;3777;48.722;8.110;2022-11-15T14:06:26;16.60;99.90
7472;DHT22;3777;48.722;8.110;2022-11-15T14:11:50;16.60;99.90
7472;DHT22;3777;48.722;8.110;2022-11-15T14:14:20;16.50;99.90
7472;DHT22;3777;48.722;8.110;2022-11-15T14:16:50;16.50;99.90
7472;DHT22;3777;48.722;8.110;2022-11-15T14:19:38;16.40;99.90
7472;DHT22;3777;48.722;8.110;2022-11-15T14:22:11;16.30;99.90
7472;DHT22;3777;48.722;8.110;2022-11-15T14:24:39;16.20;99.90
7472;DHT22;3777;48.722;8.110;2022-11-15T14:27:20;16.20;99.90
7472;DHT22;3777;48.722;8.110;2022-11-15T14:29:48;16.10;99.90
7472;DHT22;3777;48.722;8.110;2022-11-15T14:32:16;16.00;99.90
7472;DHT22;3777;48.722;8.110;2022-11-15T14:34:44;16.00;99.90
7472;DHT22;3777;48.722;8.110;2022-11-15T14:37:20;15.90;99.90
7472;DHT22;3777;48.722;8.110;2022-11-15T14:39:48;15.90;99.90
7472;DHT22;3777;48.722;8.110;2022-11-15T14:42:15;15.90;99.90
7472;DHT22;3777;48.722;8.110;2022-11-15T14:44:42;15.80;99.90
7472;DHT22;3777;48.722;8.110;2022-11-15T14:47:08;15.70;99.90
7472;DHT22;3777;48.722;8.110;2022-11-15T14:49:35;15.60;99.90
7472;DHT22;3777;48.722;8.110;2022-11-15T14:52:02;15.50;99.90
7472;DHT22;3777;48.722;8.110;2022-11-15T14:54:32;15.50;99.90
7472;DHT22;3777;48.722;8.110;2022-11-15T14:56:59;15.40;99.90
7472;DHT22;3777;48.722;8.110;2022-11-15T14:59:25;15.40;99.90
7472;DHT22;3777;48.722;8.110;2022-11-15T15:01:52;15.40;99.90
7472;DHT22;3777;48.722;8.110;2022-11-15T15:04:19;15.40;99.90
7472;DHT22;3777;48.722;8.110;2022-11-15T15:06:46;15.30;99.90
7472;DHT22;3777;48.722;8.110;2022-11-15T15:09:12;15.30;99.90
7472;DHT22;3777;48.722;8.110;2022-11-15T15:11:41;15.30;99.90
7472;DHT22;3777;48.722;8.110;2022-11-15T15:14:08;15.20;99.90
7472;DHT22;3777;48.722;8.110;2022-11-15T15:16:35;15.20;99.90
7472;DHT22;3777;48.722;8.110;2022-11-15T15:19:01;15.20;99.90
7472;DHT22;3777;48.722;8.110;2022-11-15T15:21:28;15.10;99.90
7472;DHT22;3777;48.722;8.110;2022-11-15T15:23:56;15.10;99.90
7472;DHT22;3777;48.722;8.110;2022-11-15T15:26:23;15.10;99.90
7472;DHT22;3777;48.722;8.110;2022-11-15T15:28:52;15.00;99.90
7472;DHT22;3777;48.722;8.110;2022-11-15T15:31:18;15.00;99.90
7472;DHT22;3777;48.722;8.110;2022-11-15T15:33:45;14.90;99.90
7472;DHT22;3777;48.722;8.110;2022-11-15T15:36:18;14.90;99.90
7472;DHT22;3777;48.722;8.110;2022-11-15T15:38:45;14.90;99.90
7472;DHT22;3777;48.722;8.110;2022-11-15T15:41:12;14.90;99.90
7472;DHT22;3777;48.722;8.110;2022-11-15T15:43:39;14.80;99.90
7472;DHT22;3777;48.722;8.110;2022-11-15T15:46:10;14.80;99.90
7472;DHT22;3777;48.722;8.110;2022-11-15T15:48:38;14.80;99.90
7472;DHT22;3777;48.722;8.110;2022-11-15T15:51:05;14.70;99.90
7472;DHT22;3777;48.722;8.110;2022-11-15T15:53:32;14.70;99.90
7472;DHT22;3777;48.722;8.110;2022-11-15T15:55:59;14.60;99.90
7472;DHT22;3777;48.722;8.110;2022-11-15T15:58:26;14.70;99.90
7472;DHT22;3777;48.722;8.110;2022-11-15T16:00:53;14.80;99.90
7472;DHT22;3777;48.722;8.110;2022-11-15T16:03:21;14.80;99.90
7472;DHT22;3777;48.722;8.110;2022-11-15T16:05:49;14.70;99.90
7472;DHT22;3777;48.722;8.110;2022-11-15T16:08:18;14.70;99.90
7472;DHT22;3777;48.722;8.110;2022-11-15T16:10:45;14.60;99.90
7472;DHT22;3777;48.722;8.110;2022-11-15T16:13:12;14.50;99.90
7472;DHT22;3777;48.722;8.110;2022-11-15T16:15:39;14.50;99.90
7472;DHT22;3777;48.722;8.110;2022-11-15T16:18:09;14.50;99.90
7472;DHT22;3777;48.722;8.110;2022-11-15T16:20:42;14.40;99.90
7472;DHT22;3777;48.722;8.110;2022-11-15T16:23:11;14.40;99.90
7472;DHT22;3777;48.722;8.110;2022-11-15T16:25:41;14.40;99.90
7472;DHT22;3777;48.722;8.110;2022-11-15T16:28:17;14.40;99.90
7472;DHT22;3777;48.722;8.110;2022-11-15T16:30:44;14.30;99.90